createdAt,value
2019-05-01T00:00:42.046Z,994.57
2019-05-01T00:01:42.025Z,994.56
2019-05-01T00:02:42.013Z,994.58
2019-05-01T00:03:42.091Z,994.53
2019-05-01T00:04:41.977Z,994.55
2019-05-01T00:05:41.951Z,994.56
2019-05-01T00:06:41.950Z,994.55
2019-05-01T00:07:41.937Z,994.54
2019-05-01T00:08:41.898Z,994.60
2019-05-01T00:09:41.887Z,994.52
2019-05-01T00:10:41.870Z,994.54
2019-05-01T00:11:41.849Z,994.51
2019-05-01T00:12:41.849Z,994.50
2019-05-01T00:13:41.820Z,994.51
2019-05-01T00:14:41.793Z,994.46
2019-05-01T00:15:41.785Z,994.44
2019-05-01T00:16:41.758Z,994.41
2019-05-01T00:17:41.741Z,994.45
2019-05-01T00:18:41.726Z,994.39
2019-05-01T00:19:41.723Z,994.39
2019-05-01T00:20:41.691Z,994.42
2019-05-01T00:21:41.675Z,994.42
2019-05-01T00:22:41.681Z,994.33
2019-05-01T00:23:41.637Z,994.39
2019-05-01T00:24:41.654Z,994.38
2019-05-01T00:25:41.603Z,994.38
2019-05-01T00:26:41.589Z,994.37
2019-05-01T00:27:41.571Z,994.36
2019-05-01T00:28:41.547Z,994.37
2019-05-01T00:29:41.527Z,994.39
2019-05-01T00:30:41.522Z,994.35
2019-05-01T00:31:41.499Z,994.36
2019-05-01T00:32:41.472Z,994.33
2019-05-01T00:33:41.463Z,994.40
2019-05-01T00:34:41.513Z,994.34
2019-05-01T00:35:41.424Z,994.33
2019-05-01T00:36:41.407Z,994.34
2019-05-01T00:37:41.393Z,994.37
2019-05-01T00:38:41.399Z,994.33
2019-05-01T00:39:41.349Z,994.31
2019-05-01T00:40:41.339Z,994.36
2019-05-01T00:41:41.316Z,994.32
2019-05-01T00:42:41.308Z,994.29
2019-05-01T00:43:41.282Z,994.29
2019-05-01T00:44:41.263Z,994.29
2019-05-01T00:45:41.260Z,994.29
2019-05-01T00:46:41.231Z,994.29
2019-05-01T00:47:41.217Z,994.27
2019-05-01T00:48:41.188Z,994.26
2019-05-01T00:49:41.172Z,994.26
2019-05-01T00:50:41.174Z,994.25
2019-05-01T00:51:41.138Z,994.23
2019-05-01T00:52:41.124Z,994.22
2019-05-01T00:53:41.103Z,994.24
2019-05-01T00:54:41.145Z,994.22
2019-05-01T00:55:41.270Z,994.22
2019-05-01T00:56:41.062Z,994.18
2019-05-01T00:57:41.092Z,994.12
2019-05-01T00:58:41.012Z,994.15
2019-05-01T00:59:40.992Z,994.13
2019-05-01T01:00:43.155Z,994.06
2019-05-01T01:01:40.967Z,994.09
2019-05-01T01:02:40.941Z,994.08
2019-05-01T01:03:40.926Z,994.10
2019-05-01T01:04:40.911Z,994.11
2019-05-01T01:05:40.895Z,994.09
2019-05-01T01:06:40.868Z,994.11
2019-05-01T01:07:40.847Z,994.12
2019-05-01T01:08:40.840Z,994.08
2019-05-01T01:09:40.834Z,994.08
2019-05-01T01:10:40.798Z,994.06
2019-05-01T01:11:40.794Z,994.06
2019-05-01T01:12:40.768Z,994.03
2019-05-01T01:13:40.749Z,994.04
2019-05-01T01:14:40.738Z,994.06
2019-05-01T01:15:40.712Z,994.09
2019-05-01T01:16:40.689Z,994.10
2019-05-01T01:17:40.681Z,994.10
2019-05-01T01:18:40.661Z,994.09
2019-05-01T01:19:40.641Z,994.10
2019-05-01T01:20:40.646Z,994.13
2019-05-01T01:21:40.619Z,994.15
2019-05-01T01:22:40.601Z,994.15
2019-05-01T01:23:40.568Z,994.15
2019-05-01T01:24:40.560Z,994.15
2019-05-01T01:25:40.533Z,994.13
2019-05-01T01:26:40.515Z,994.14
2019-05-01T01:27:40.490Z,994.13
2019-05-01T01:28:40.483Z,994.14
2019-05-01T01:29:40.458Z,994.12
2019-05-01T01:30:40.447Z,994.12
2019-05-01T01:31:40.474Z,994.13
2019-05-01T01:32:40.409Z,994.12
2019-05-01T01:33:40.513Z,994.12
2019-05-01T01:34:40.464Z,994.12
2019-05-01T01:35:40.450Z,994.13
2019-05-01T01:36:40.406Z,994.10
2019-05-01T01:37:40.313Z,994.08
2019-05-01T01:38:40.298Z,994.04
2019-05-01T01:39:40.281Z,994.04
2019-05-01T01:40:40.258Z,994.01
2019-05-01T01:41:40.251Z,994.00
2019-05-01T01:42:40.225Z,993.97
2019-05-01T01:43:40.212Z,993.94
2019-05-01T01:44:40.196Z,993.97
2019-05-01T01:45:40.170Z,993.97
2019-05-01T01:46:40.216Z,993.95
2019-05-01T01:47:40.137Z,993.95
2019-05-01T01:48:40.122Z,993.94
2019-05-01T01:49:40.099Z,993.96
2019-05-01T01:50:40.086Z,993.94
2019-05-01T01:51:40.069Z,993.90
2019-05-01T01:52:40.047Z,993.90
2019-05-01T01:53:40.028Z,993.87
2019-05-01T01:54:40.027Z,993.84
2019-05-01T01:55:39.991Z,993.88
2019-05-01T01:56:39.976Z,993.88
2019-05-01T01:57:39.957Z,993.90
2019-05-01T01:58:39.954Z,993.92
2019-05-01T01:59:39.932Z,993.96
2019-05-01T02:00:39.902Z,993.94
2019-05-01T02:01:39.882Z,993.94
2019-05-01T02:02:39.862Z,993.94
2019-05-01T02:03:39.854Z,993.98
2019-05-01T02:04:39.846Z,993.96
2019-05-01T02:05:39.818Z,993.94
2019-05-01T02:06:39.913Z,993.92
2019-05-01T02:07:39.774Z,993.94
2019-05-01T02:08:39.770Z,993.92
2019-05-01T02:09:39.741Z,993.95
2019-05-01T02:10:42.833Z,993.90
2019-05-01T02:11:39.744Z,993.93
2019-05-01T02:12:39.688Z,993.95
2019-05-01T02:13:39.674Z,993.90
2019-05-01T02:14:39.652Z,993.94
2019-05-01T02:15:39.636Z,993.93
2019-05-01T02:16:39.619Z,993.93
2019-05-01T02:17:39.595Z,993.92
2019-05-01T02:18:39.598Z,993.93
2019-05-01T02:19:39.564Z,993.94
2019-05-01T02:20:39.542Z,993.91
2019-05-01T02:21:39.537Z,993.86
2019-05-01T02:22:39.749Z,993.89
2019-05-01T02:23:39.486Z,993.85
2019-05-01T02:24:39.465Z,993.87
2019-05-01T02:25:39.501Z,993.87
2019-05-01T02:26:39.434Z,993.87
2019-05-01T02:27:39.411Z,993.86
2019-05-01T02:28:39.401Z,993.85
2019-05-01T02:29:39.383Z,993.84
2019-05-01T02:30:39.359Z,993.85
2019-05-01T02:31:39.339Z,993.85
2019-05-01T02:32:39.325Z,993.80
2019-05-01T02:33:39.306Z,993.81
2019-05-01T02:34:39.288Z,993.84
2019-05-01T02:35:39.272Z,993.82
2019-05-01T02:36:39.255Z,993.79
2019-05-01T02:37:39.237Z,993.80
2019-05-01T02:38:39.214Z,993.75
2019-05-01T02:39:39.196Z,993.78
2019-05-01T02:40:39.180Z,993.75
2019-05-01T02:41:41.493Z,993.78
2019-05-01T02:42:39.137Z,993.77
2019-05-01T02:43:39.117Z,993.76
2019-05-01T02:44:39.110Z,993.77
2019-05-01T02:45:39.085Z,993.73
2019-05-01T02:46:39.082Z,993.74
2019-05-01T02:47:39.050Z,993.72
2019-05-01T02:48:39.031Z,993.71
2019-05-01T02:49:39.017Z,993.70
2019-05-01T02:50:38.998Z,993.70
2019-05-01T02:51:38.985Z,993.70
2019-05-01T02:52:38.959Z,993.65
2019-05-01T02:53:38.947Z,993.68
2019-05-01T02:54:38.937Z,993.66
2019-05-01T02:55:38.908Z,993.63
2019-05-01T02:56:38.883Z,993.64
2019-05-01T02:57:38.886Z,993.62
2019-05-01T02:58:38.855Z,993.61
2019-05-01T02:59:38.831Z,993.59
2019-05-01T03:00:38.815Z,993.61
2019-05-01T03:01:47.175Z,993.61
2019-05-01T03:02:38.809Z,993.54
2019-05-01T03:03:38.759Z,993.54
2019-05-01T03:04:38.740Z,993.56
2019-05-01T03:05:38.747Z,993.57
2019-05-01T03:06:38.705Z,993.55
2019-05-01T03:07:38.684Z,993.55
2019-05-01T03:08:38.665Z,993.55
2019-05-01T03:09:38.649Z,993.54
2019-05-01T03:10:38.677Z,993.53
2019-05-01T03:11:38.612Z,993.55
2019-05-01T03:12:38.591Z,993.54
2019-05-01T03:13:38.575Z,993.52
2019-05-01T03:14:38.555Z,993.58
2019-05-01T03:15:38.538Z,993.54
2019-05-01T03:16:38.522Z,993.55
2019-05-01T03:17:38.501Z,993.53
2019-05-01T03:18:38.485Z,993.55
2019-05-01T03:19:38.470Z,993.54
2019-05-01T03:20:38.473Z,993.54
2019-05-01T03:21:38.428Z,993.56
2019-05-01T03:22:38.408Z,993.55
2019-05-01T03:23:38.391Z,993.52
2019-05-01T03:24:38.378Z,993.56
2019-05-01T03:25:38.364Z,993.57
2019-05-01T03:26:38.341Z,993.59
2019-05-01T03:27:38.320Z,993.57
2019-05-01T03:28:38.380Z,993.56
2019-05-01T03:29:38.299Z,993.53
2019-05-01T03:30:38.263Z,993.51
2019-05-01T03:31:38.243Z,993.52
2019-05-01T03:32:38.241Z,993.50
2019-05-01T03:33:38.206Z,993.49
2019-05-01T03:34:38.193Z,993.53
2019-05-01T03:35:38.173Z,993.50
2019-05-01T03:36:38.159Z,993.50
2019-05-01T03:37:38.137Z,993.50
2019-05-01T03:38:38.136Z,993.48
2019-05-01T03:39:38.120Z,993.49
2019-05-01T03:40:38.089Z,993.44
2019-05-01T03:41:38.063Z,993.49
2019-05-01T03:42:38.049Z,993.45
2019-05-01T03:43:38.029Z,993.47
2019-05-01T03:44:38.009Z,993.48
2019-05-01T03:45:37.995Z,993.46
2019-05-01T03:46:37.980Z,993.46
2019-05-01T03:47:37.952Z,993.44
2019-05-01T03:48:37.943Z,993.46
2019-05-01T03:49:37.918Z,993.46
2019-05-01T03:50:37.895Z,993.45
2019-05-01T03:51:37.895Z,993.47
2019-05-01T03:52:37.861Z,993.44
2019-05-01T03:53:37.847Z,993.41
2019-05-01T03:54:37.824Z,993.43
2019-05-01T03:55:37.806Z,993.45
2019-05-01T03:56:37.788Z,993.42
2019-05-01T03:57:37.781Z,993.39
2019-05-01T03:58:37.752Z,993.43
2019-05-01T03:59:37.746Z,993.44
2019-05-01T04:00:37.717Z,993.42
2019-05-01T04:01:37.697Z,993.42
2019-05-01T04:02:37.683Z,993.42
2019-05-01T04:03:37.658Z,993.45
2019-05-01T04:04:37.639Z,993.42
2019-05-01T04:05:37.627Z,993.46
2019-05-01T04:06:37.611Z,993.42
2019-05-01T04:07:37.609Z,993.43
2019-05-01T04:08:37.598Z,993.40
2019-05-01T04:09:37.566Z,993.42
2019-05-01T04:10:37.531Z,993.44
2019-05-01T04:11:37.510Z,993.41
2019-05-01T04:12:37.498Z,993.40
2019-05-01T04:13:37.476Z,993.39
2019-05-01T04:14:39.400Z,993.40
2019-05-01T04:15:37.440Z,993.40
2019-05-01T04:16:37.421Z,993.39
2019-05-01T04:17:37.403Z,993.39
2019-05-01T04:18:37.381Z,993.38
2019-05-01T04:19:37.369Z,993.37
2019-05-01T04:20:37.350Z,993.38
2019-05-01T04:21:37.331Z,993.39
2019-05-01T04:22:37.308Z,993.40
2019-05-01T04:23:37.290Z,993.38
2019-05-01T04:24:37.278Z,993.39
2019-05-01T04:25:37.260Z,993.39
2019-05-01T04:26:37.243Z,993.36
2019-05-01T04:27:37.223Z,993.36
2019-05-01T04:28:37.218Z,993.38
2019-05-01T04:29:37.186Z,993.32
2019-05-01T04:30:37.166Z,993.36
2019-05-01T04:31:37.164Z,993.34
2019-05-01T04:32:51.761Z,993.38
2019-05-01T04:33:37.106Z,993.38
2019-05-01T04:34:37.090Z,993.35
2019-05-01T04:35:37.095Z,993.34
2019-05-01T04:36:37.078Z,993.36
2019-05-01T04:37:37.042Z,993.39
2019-05-01T04:38:37.020Z,993.43
2019-05-01T04:39:37.001Z,993.41
2019-05-01T04:40:36.981Z,993.45
2019-05-01T04:41:36.972Z,993.46
2019-05-01T04:42:36.945Z,993.51
2019-05-01T04:43:36.926Z,993.49
2019-05-01T04:44:36.916Z,993.48
2019-05-01T04:45:36.919Z,993.51
2019-05-01T04:46:36.878Z,993.50
2019-05-01T04:47:36.874Z,993.54
2019-05-01T04:48:36.837Z,993.55
2019-05-01T04:49:36.814Z,993.52
2019-05-01T04:50:36.799Z,993.52
2019-05-01T04:51:36.806Z,993.56
2019-05-01T04:52:36.772Z,993.52
2019-05-01T04:53:36.749Z,993.54
2019-05-01T04:54:36.741Z,993.58
2019-05-01T04:55:36.715Z,993.57
2019-05-01T04:56:36.682Z,993.59
2019-05-01T04:57:36.671Z,993.56
2019-05-01T04:58:36.651Z,993.58
2019-05-01T04:59:36.635Z,993.56
2019-05-01T05:00:36.639Z,993.54
2019-05-01T05:01:36.608Z,993.56
2019-05-01T05:02:36.595Z,993.58
2019-05-01T05:03:36.580Z,993.58
2019-05-01T05:04:36.551Z,993.58
2019-05-01T05:05:36.522Z,993.60
2019-05-01T05:06:36.503Z,993.58
2019-05-01T05:07:36.488Z,993.61
2019-05-01T05:08:36.468Z,993.59
2019-05-01T05:09:36.450Z,993.61
2019-05-01T05:10:36.453Z,993.59
2019-05-01T05:11:36.417Z,993.62
2019-05-01T05:12:36.398Z,993.61
2019-05-01T05:13:36.382Z,993.59
2019-05-01T05:14:36.365Z,993.61
2019-05-01T05:15:36.344Z,993.61
2019-05-01T05:16:36.320Z,993.61
2019-05-01T05:17:36.314Z,993.65
2019-05-01T05:18:36.306Z,993.63
2019-05-01T05:19:36.274Z,993.62
2019-05-01T05:20:36.248Z,993.64
2019-05-01T05:21:36.252Z,993.63
2019-05-01T05:22:36.234Z,993.67
2019-05-01T05:23:36.220Z,993.68
2019-05-01T05:24:36.181Z,993.67
2019-05-01T05:25:36.167Z,993.68
2019-05-01T05:26:36.170Z,993.69
2019-05-01T05:27:36.131Z,993.67
2019-05-01T05:28:36.114Z,993.67
2019-05-01T05:29:36.092Z,993.68
2019-05-01T05:30:36.075Z,993.72
2019-05-01T05:31:36.061Z,993.77
2019-05-01T05:32:36.039Z,993.75
2019-05-01T05:33:36.033Z,993.73
2019-05-01T05:34:36.011Z,993.80
2019-05-01T05:35:35.990Z,993.78
2019-05-01T05:36:35.971Z,993.80
2019-05-01T05:37:35.957Z,993.83
2019-05-01T05:38:35.938Z,993.85
2019-05-01T05:39:35.933Z,993.86
2019-05-01T05:40:35.920Z,993.89
2019-05-01T05:41:35.881Z,993.90
2019-05-01T05:42:35.878Z,993.90
2019-05-01T05:43:35.884Z,993.94
2019-05-01T05:44:35.838Z,993.92
2019-05-01T05:45:35.819Z,993.96
2019-05-01T05:46:35.818Z,994.00
2019-05-01T05:47:35.777Z,993.96
2019-05-01T05:48:35.768Z,993.99
2019-05-01T05:49:35.753Z,993.95
2019-05-01T05:50:35.731Z,993.96
2019-05-01T05:51:35.717Z,994.00
2019-05-01T05:52:35.699Z,994.03
2019-05-01T05:53:35.683Z,993.98
2019-05-01T05:54:35.671Z,994.01
2019-05-01T05:55:35.643Z,993.96
2019-05-01T05:56:35.627Z,993.93
2019-05-01T05:57:35.615Z,994.00
2019-05-01T05:58:35.603Z,993.94
2019-05-01T05:59:35.586Z,993.94
2019-05-01T06:00:35.562Z,993.92
2019-05-01T06:01:35.548Z,993.93
2019-05-01T06:02:35.528Z,993.89
2019-05-01T06:03:35.514Z,993.88
2019-05-01T06:04:35.495Z,993.89
2019-05-01T06:05:35.485Z,993.91
2019-05-01T06:06:35.470Z,993.88
2019-05-01T06:07:35.451Z,993.91
2019-05-01T06:08:35.437Z,993.89
2019-05-01T06:09:35.423Z,993.91
2019-05-01T06:10:35.406Z,993.90
2019-05-01T06:11:35.512Z,993.90
2019-05-01T06:12:37.217Z,993.94
2019-05-01T06:13:35.352Z,993.90
2019-05-01T06:14:35.339Z,993.95
2019-05-01T06:15:36.645Z,993.88
2019-05-01T06:16:35.308Z,993.91
2019-05-01T06:17:35.312Z,993.94
2019-05-01T06:18:39.430Z,993.93
2019-05-01T06:19:35.257Z,993.91
2019-05-01T06:20:37.381Z,993.94
2019-05-01T06:21:35.943Z,993.91
2019-05-01T06:22:35.223Z,993.93
2019-05-01T06:23:35.201Z,993.94
2019-05-01T06:24:35.733Z,993.92
2019-05-01T06:25:35.164Z,993.96
2019-05-01T06:26:37.603Z,993.92
2019-05-01T06:27:35.146Z,993.93
2019-05-01T06:28:35.124Z,993.92
2019-05-01T06:29:35.708Z,993.92
2019-05-01T06:30:35.091Z,993.91
2019-05-01T06:31:35.073Z,993.93
2019-05-01T06:32:35.059Z,993.92
2019-05-01T06:33:44.110Z,993.96
2019-05-01T06:34:35.045Z,993.97
2019-05-01T06:35:38.078Z,993.94
2019-05-01T06:36:35.006Z,994.01
2019-05-01T06:37:34.996Z,994.00
2019-05-01T06:38:36.319Z,993.96
2019-05-01T06:39:34.953Z,993.96
2019-05-01T06:40:34.938Z,994.00
2019-05-01T06:41:42.080Z,994.01
2019-05-01T06:42:34.918Z,993.97
2019-05-01T06:43:34.913Z,993.96
2019-05-01T06:44:39.225Z,993.94
2019-05-01T06:45:34.878Z,993.97
2019-05-01T06:46:35.526Z,993.97
2019-05-01T06:47:38.243Z,993.89
2019-05-01T06:48:34.823Z,993.92
2019-05-01T06:49:34.811Z,993.91
2019-05-01T06:50:37.113Z,993.90
2019-05-01T06:51:34.783Z,993.93
2019-05-01T06:52:34.792Z,993.91
2019-05-01T06:53:36.070Z,993.94
2019-05-01T06:54:34.758Z,993.94
2019-05-01T06:55:34.732Z,993.91
2019-05-01T06:56:34.709Z,993.92
2019-05-01T06:57:38.298Z,993.95
2019-05-01T06:58:34.683Z,993.91
2019-05-01T06:59:34.673Z,993.93
2019-05-01T07:00:34.651Z,993.94
2019-05-01T07:01:34.643Z,993.96
2019-05-01T07:02:35.335Z,993.96
2019-05-01T07:03:34.613Z,993.96
2019-05-01T07:04:37.755Z,993.97
2019-05-01T07:05:34.592Z,993.98
2019-05-01T07:06:34.641Z,993.99
2019-05-01T07:07:34.561Z,993.93
2019-05-01T07:08:37.918Z,993.95
2019-05-01T07:09:34.531Z,993.96
2019-05-01T07:10:43.602Z,993.97
2019-05-01T07:11:34.594Z,993.99
2019-05-01T07:12:34.530Z,993.96
2019-05-01T07:13:35.442Z,994.00
2019-05-01T07:14:34.473Z,993.97
2019-05-01T07:15:34.485Z,993.99
2019-05-01T07:16:38.094Z,993.97
2019-05-01T07:17:34.441Z,994.00
2019-05-01T07:18:34.421Z,993.98
2019-05-01T07:19:35.560Z,993.98
2019-05-01T07:20:34.395Z,994.00
2019-05-01T07:21:34.381Z,994.01
2019-05-01T07:22:37.049Z,994.03
2019-05-01T07:23:34.356Z,994.01
2019-05-01T07:24:34.342Z,994.02
2019-05-01T07:25:34.820Z,993.99
2019-05-01T07:26:34.319Z,993.99
2019-05-01T07:27:34.308Z,993.99
2019-05-01T07:28:36.102Z,993.96
2019-05-01T07:29:34.278Z,993.97
2019-05-01T07:30:34.271Z,993.96
2019-05-01T07:31:34.260Z,993.98
2019-05-01T07:32:36.397Z,993.97
2019-05-01T07:33:34.230Z,994.01
2019-05-01T07:34:34.216Z,994.01
2019-05-01T07:35:36.707Z,993.96
2019-05-01T07:36:34.205Z,994.02
2019-05-01T07:37:34.187Z,994.00
2019-05-01T07:38:38.167Z,994.03
2019-05-01T07:39:34.168Z,994.00
2019-05-01T07:40:34.148Z,994.02
2019-05-01T07:41:37.731Z,993.98
2019-05-01T07:42:34.134Z,993.93
2019-05-01T07:43:34.121Z,993.97
2019-05-01T07:44:35.008Z,993.97
2019-05-01T07:45:34.095Z,993.94
2019-05-01T07:46:34.082Z,993.94
2019-05-01T07:47:34.068Z,993.95
2019-05-01T07:48:36.095Z,993.97
2019-05-01T07:49:34.054Z,993.96
2019-05-01T07:50:34.040Z,994.01
2019-05-01T07:51:37.838Z,993.96
2019-05-01T07:52:34.028Z,993.99
2019-05-01T07:53:34.013Z,993.96
2019-05-01T07:54:37.855Z,993.98
2019-05-01T07:55:33.993Z,993.94
2019-05-01T07:56:33.983Z,993.98
2019-05-01T07:57:38.740Z,993.96
2019-05-01T07:58:33.968Z,993.94
2019-05-01T07:59:33.957Z,993.95
2019-05-01T08:00:36.881Z,993.90
2019-05-01T08:01:33.937Z,993.92
2019-05-01T08:02:33.930Z,993.91
2019-05-01T08:03:37.965Z,993.94
2019-05-01T08:04:36.338Z,993.93
2019-05-01T08:05:33.915Z,993.97
2019-05-01T08:06:33.895Z,993.97
2019-05-01T08:07:33.889Z,993.95
2019-05-01T08:08:33.874Z,993.97
2019-05-01T08:09:33.869Z,993.96
2019-05-01T08:10:34.038Z,993.94
2019-05-01T08:11:33.856Z,993.94
2019-05-01T08:12:33.847Z,993.95
2019-05-01T08:13:34.987Z,993.95
2019-05-01T08:14:33.832Z,993.96
2019-05-01T08:15:33.815Z,993.92
2019-05-01T08:16:37.904Z,993.90
2019-05-01T08:17:33.809Z,993.92
2019-05-01T08:18:36.120Z,993.91
2019-05-01T08:19:34.751Z,993.91
2019-05-01T08:20:33.781Z,993.89
2019-05-01T08:21:33.777Z,993.89
2019-05-01T08:22:37.165Z,993.86
2019-05-01T08:23:33.771Z,993.88
2019-05-01T08:24:33.760Z,993.88
2019-05-01T08:25:34.474Z,993.89
2019-05-01T08:26:33.743Z,993.84
2019-05-01T08:27:33.735Z,993.83
2019-05-01T08:28:33.731Z,993.87
2019-05-01T08:29:37.041Z,993.89
2019-05-01T08:30:33.705Z,993.92
2019-05-01T08:31:33.705Z,993.87
2019-05-01T08:32:38.809Z,993.86
2019-05-01T08:33:33.686Z,993.85
2019-05-01T08:34:33.683Z,993.86
2019-05-01T08:35:36.516Z,993.88
2019-05-01T08:36:33.669Z,993.86
2019-05-01T08:37:33.660Z,993.85
2019-05-01T08:38:34.236Z,993.87
2019-05-01T08:39:33.648Z,993.90
2019-05-01T08:40:33.644Z,993.87
2019-05-01T08:41:33.632Z,993.84
2019-05-01T08:42:33.774Z,993.86
2019-05-01T08:43:33.617Z,993.85
2019-05-01T08:44:33.625Z,993.85
2019-05-01T08:45:35.855Z,993.83
2019-05-01T08:46:33.592Z,993.82
2019-05-01T08:47:33.588Z,993.84
2019-05-01T08:48:35.763Z,993.81
2019-05-01T08:49:33.574Z,993.85
2019-05-01T08:50:33.570Z,993.82
2019-05-01T08:51:34.871Z,993.81
2019-05-01T08:52:33.548Z,993.81
2019-05-01T08:53:33.548Z,993.78
2019-05-01T08:54:34.828Z,993.77
2019-05-01T08:55:33.530Z,993.80
2019-05-01T08:56:33.521Z,993.76
2019-05-01T08:57:34.458Z,993.75
2019-05-01T08:58:33.520Z,993.74
2019-05-01T08:59:33.508Z,993.76
2019-05-01T09:00:36.426Z,993.75
2019-05-01T09:01:33.491Z,993.73
2019-05-01T09:02:36.726Z,993.72
2019-05-01T09:03:33.481Z,993.71
2019-05-01T09:04:33.485Z,993.72
2019-05-01T09:05:34.135Z,993.74
2019-05-01T09:06:34.772Z,993.71
2019-05-01T09:07:33.484Z,993.73
2019-05-01T09:08:33.472Z,993.73
2019-05-01T09:09:33.696Z,993.71
2019-05-01T09:10:33.433Z,993.68
2019-05-01T09:11:36.310Z,993.70
2019-05-01T09:12:33.429Z,993.71
2019-05-01T09:13:33.416Z,993.71
2019-05-01T09:14:35.152Z,993.71
2019-05-01T09:15:33.402Z,993.72
2019-05-01T09:16:33.396Z,993.72
2019-05-01T09:17:33.391Z,993.73
2019-05-01T09:18:33.403Z,993.72
2019-05-01T09:19:33.376Z,993.72
2019-05-01T09:20:33.369Z,993.73
2019-05-01T09:21:37.626Z,993.74
2019-05-01T09:22:33.362Z,993.71
2019-05-01T09:23:34.584Z,993.74
2019-05-01T09:24:33.347Z,993.72
2019-05-01T09:25:35.313Z,993.71
2019-05-01T09:26:33.344Z,993.71
2019-05-01T09:27:33.334Z,993.66
2019-05-01T09:28:35.934Z,993.68
2019-05-01T09:29:33.355Z,993.66
2019-05-01T09:30:33.318Z,993.65
2019-05-01T09:31:35.408Z,993.65
2019-05-01T09:32:33.338Z,993.62
2019-05-01T09:33:33.323Z,993.64
2019-05-01T09:34:33.309Z,993.67
2019-05-01T09:35:33.430Z,993.64
2019-05-01T09:36:33.390Z,993.60
2019-05-01T09:37:33.284Z,993.63
2019-05-01T09:38:33.283Z,993.65
2019-05-01T09:39:33.277Z,993.58
2019-05-01T09:40:33.273Z,993.61
2019-05-01T09:41:38.554Z,993.61
2019-05-01T09:42:33.260Z,993.63
2019-05-01T09:43:35.679Z,993.59
2019-05-01T09:44:33.257Z,993.58
2019-05-01T09:45:33.249Z,993.57
2019-05-01T09:46:33.286Z,993.56
2019-05-01T09:47:33.240Z,993.56
2019-05-01T09:48:33.246Z,993.56
2019-05-01T09:49:33.233Z,993.59
2019-05-01T09:50:33.245Z,993.56
2019-05-01T09:51:33.228Z,993.56
2019-05-01T09:52:33.245Z,993.52
2019-05-01T09:53:34.204Z,993.54
2019-05-01T09:54:33.245Z,993.51
2019-05-01T09:55:33.209Z,993.49
2019-05-01T09:56:33.215Z,993.52
2019-05-01T09:57:36.538Z,993.52
2019-05-01T09:58:33.195Z,993.51
2019-05-01T09:59:33.192Z,993.51
2019-05-01T10:00:33.196Z,993.51
2019-05-01T10:01:33.187Z,993.53
2019-05-01T10:02:33.189Z,993.51
2019-05-01T10:03:33.195Z,993.50
2019-05-01T10:04:33.194Z,993.57
2019-05-01T10:05:33.183Z,993.50
2019-05-01T10:06:33.174Z,993.51
2019-05-01T10:07:33.175Z,993.54
2019-05-01T10:08:34.796Z,993.46
2019-05-01T10:09:33.167Z,993.45
2019-05-01T10:10:33.162Z,993.45
2019-05-01T10:11:35.930Z,993.42
2019-05-01T10:12:33.155Z,993.43
2019-05-01T10:13:33.156Z,993.43
2019-05-01T10:14:36.296Z,993.44
2019-05-01T10:15:33.149Z,993.41
2019-05-01T10:16:33.148Z,993.41
2019-05-01T10:17:33.148Z,993.35
2019-05-01T10:18:33.154Z,993.38
2019-05-01T10:19:33.157Z,993.42
2019-05-01T10:20:33.138Z,993.36
2019-05-01T10:21:33.132Z,993.38
2019-05-01T10:22:37.589Z,993.32
2019-05-01T10:23:33.129Z,993.33
2019-05-01T10:24:38.204Z,993.31
2019-05-01T10:25:33.121Z,993.28
2019-05-01T10:26:33.122Z,993.26
2019-05-01T10:27:35.777Z,993.24
2019-05-01T10:28:33.122Z,993.24
2019-05-01T10:29:33.112Z,993.23
2019-05-01T10:30:36.262Z,993.21
2019-05-01T10:31:33.109Z,993.24
2019-05-01T10:32:33.111Z,993.23
2019-05-01T10:33:33.819Z,993.19
2019-05-01T10:34:33.099Z,993.13
2019-05-01T10:35:42.398Z,993.14
2019-05-01T10:36:33.089Z,993.13
2019-05-01T10:37:34.133Z,993.08
2019-05-01T10:38:33.086Z,993.05
2019-05-01T10:39:33.092Z,993.05
2019-05-01T10:40:34.327Z,993.07
2019-05-01T10:41:33.086Z,993.05
2019-05-01T10:42:33.081Z,993.01
2019-05-01T10:43:33.084Z,993.01
2019-05-01T10:44:33.078Z,993.05
2019-05-01T10:45:33.071Z,993.00
2019-05-01T10:46:33.075Z,993.01
2019-05-01T10:47:33.073Z,992.99
2019-05-01T10:48:33.093Z,992.96
2019-05-01T10:49:33.069Z,992.99
2019-05-01T10:50:33.085Z,992.95
2019-05-01T10:51:33.059Z,992.91
2019-05-01T10:52:33.061Z,992.91
2019-05-01T10:53:33.062Z,992.90
2019-05-01T10:54:33.065Z,992.87
2019-05-01T10:55:33.060Z,992.86
2019-05-01T10:56:33.056Z,992.90
2019-05-01T10:57:35.002Z,992.84
2019-05-01T10:58:33.054Z,992.86
2019-05-01T10:59:33.062Z,992.82
2019-05-01T11:00:33.049Z,992.81
2019-05-01T11:01:33.045Z,992.80
2019-05-01T11:02:33.043Z,992.79
2019-05-01T11:03:33.046Z,992.77
2019-05-01T11:04:33.045Z,992.74
2019-05-01T11:05:33.037Z,992.76
2019-05-01T11:06:33.041Z,992.75
2019-05-01T11:07:33.035Z,992.76
2019-05-01T11:08:33.041Z,992.78
2019-05-01T11:09:33.033Z,992.72
2019-05-01T11:10:33.031Z,992.70
2019-05-01T11:11:33.034Z,992.72
2019-05-01T11:12:33.042Z,992.67
2019-05-01T11:13:33.033Z,992.72
2019-05-01T11:14:33.036Z,992.70
2019-05-01T11:15:33.031Z,992.69
2019-05-01T11:16:33.029Z,992.68
2019-05-01T11:17:33.021Z,992.70
2019-05-01T11:18:33.032Z,992.64
2019-05-01T11:19:33.035Z,992.67
2019-05-01T11:20:33.029Z,992.60
2019-05-01T11:21:33.025Z,992.59
2019-05-01T11:22:33.026Z,992.58
2019-05-01T11:23:33.016Z,992.59
2019-05-01T11:24:33.022Z,992.58
2019-05-01T11:25:33.020Z,992.56
2019-05-01T11:26:33.019Z,992.55
2019-05-01T11:27:33.017Z,992.53
2019-05-01T11:28:33.012Z,992.56
2019-05-01T11:29:33.011Z,992.51
2019-05-01T11:30:33.010Z,992.51
2019-05-01T11:31:33.012Z,992.49
2019-05-01T11:32:33.011Z,992.47
2019-05-01T11:33:33.015Z,992.49
2019-05-01T11:34:33.015Z,992.48
2019-05-01T11:35:33.008Z,992.50
2019-05-01T11:36:33.003Z,992.46
2019-05-01T11:37:33.009Z,992.48
2019-05-01T11:38:33.014Z,992.45
2019-05-01T11:39:35.983Z,992.41
2019-05-01T11:40:33.008Z,992.42
2019-05-01T11:41:33.008Z,992.40
2019-05-01T11:42:33.003Z,992.41
2019-05-01T11:43:33.013Z,992.43
2019-05-01T11:44:33.012Z,992.39
2019-05-01T11:45:33.012Z,992.40
2019-05-01T11:46:33.030Z,992.44
2019-05-01T11:47:33.012Z,992.42
2019-05-01T11:48:33.014Z,992.40
2019-05-01T11:49:33.011Z,992.40
2019-05-01T11:50:33.012Z,992.37
2019-05-01T11:51:33.011Z,992.41
2019-05-01T11:52:33.009Z,992.42
2019-05-01T11:53:33.012Z,992.36
2019-05-01T11:54:33.014Z,992.36
2019-05-01T11:55:33.022Z,992.37
2019-05-01T11:56:33.015Z,992.30
2019-05-01T11:57:33.013Z,992.34
2019-05-01T11:58:33.017Z,992.29
2019-05-01T11:59:33.037Z,992.28
2019-05-01T12:00:33.021Z,992.34
2019-05-01T12:01:33.021Z,992.30
2019-05-01T12:02:33.041Z,992.35
2019-05-01T12:03:33.023Z,992.36
2019-05-01T12:04:33.024Z,992.34
2019-05-01T12:05:33.021Z,992.30
2019-05-01T12:06:33.027Z,992.27
2019-05-01T12:07:33.021Z,992.29
2019-05-01T12:08:33.026Z,992.27
2019-05-01T12:09:33.029Z,992.33
2019-05-01T12:10:33.034Z,992.26
2019-05-01T12:11:33.031Z,992.30
2019-05-01T12:12:33.041Z,992.27
2019-05-01T12:13:43.267Z,992.27
2019-05-01T12:14:33.033Z,992.29
2019-05-01T12:15:33.034Z,992.26
2019-05-01T12:16:33.036Z,992.24
2019-05-01T12:17:33.114Z,992.25
2019-05-01T12:18:33.069Z,992.26
2019-05-01T12:19:33.043Z,992.19
2019-05-01T12:20:33.083Z,992.19
2019-05-01T12:21:33.043Z,992.21
2019-05-01T12:22:33.048Z,992.17
2019-05-01T12:23:33.042Z,992.14
2019-05-01T12:24:33.043Z,992.18
2019-05-01T12:25:33.046Z,992.12
2019-05-01T12:26:33.042Z,992.18
2019-05-01T12:27:33.043Z,992.15
2019-05-01T12:28:33.047Z,992.17